Time;durP1;ratioP1;P1;durP2;ratioP2;P2;SDS_P1;SDS_P2;PMS_P1;PMS_P2;Temp;Humidity;BMP_temperature;BMP_pressure;BME280_temperature;BME280_humidity;BME280_pressure;Samples;Min_cycle;Max_cycle;Signal;HPM_P1;HPM_P2
2023/09/23 00:01:10;;;;;;;4.63;3.75;;;;;;;14.74;100.00;99970.91;4997400;28;20072;-69
2023/09/23 00:03:38;;;;;;;4.90;3.65;;;;;;;14.72;100.00;99968.38;4993668;28;20053;-70
2023/09/23 00:06:08;;;;;;;9.30;4.00;;;;;;;14.71;100.00;99976.47;5023648;28;20061;-71
2023/09/23 00:08:36;;;;;;;4.38;3.22;;;;;;;14.70;100.00;99975.63;5011972;28;20057;-69
2023/09/23 00:11:04;;;;;;;4.15;3.30;;;;;;;14.67;100.00;99976.72;5025386;28;20047;-71
2023/09/23 00:13:32;;;;;;;6.32;3.60;;;;;;;14.66;100.00;99992.75;5008770;28;20540;-71
2023/09/23 00:16:07;;;;;;;7.25;3.58;;;;;;;14.65;100.00;100009.63;5006838;28;20050;-70
2023/09/23 00:18:35;;;;;;;4.22;3.13;;;;;;;14.62;100.00;100016.00;5012550;28;20072;-68
2023/09/23 00:21:05;;;;;;;9.77;3.47;;;;;;;14.60;100.00;100006.53;5021155;28;20057;-70
2023/09/23 00:23:32;;;;;;;5.13;3.53;;;;;;;14.57;100.00;100010.28;5012028;28;20148;-70
2023/09/23 00:26:01;;;;;;;10.35;3.40;;;;;;;14.53;100.00;100014.16;5009712;28;20045;-70
2023/09/23 00:28:30;;;;;;;5.80;3.67;;;;;;;14.51;100.00;100016.09;5010188;28;20077;-70
2023/09/23 00:31:05;;;;;;;4.30;3.90;;;;;;;14.50;100.00;100026.81;5024977;28;20049;-70
2023/09/23 00:33:37;;;;;;;6.70;3.47;;;;;;;14.48;100.00;100018.13;5011737;28;20096;-69
2023/09/23 00:36:07;;;;;;;5.85;2.97;;;;;;;14.48;100.00;100015.50;5008938;28;20498;-69
2023/09/23 00:38:38;;;;;;;5.55;2.92;;;;;;;14.47;100.00;100019.13;5010402;28;20073;-71
2023/09/23 00:41:06;;;;;;;4.28;3.03;;;;;;;14.44;100.00;100012.25;5002561;28;20096;-70
2023/09/23 00:43:34;;;;;;;10.10;3.63;;;;;;;14.43;100.00;100008.78;4992979;28;20084;-71
2023/09/23 00:46:05;;;;;;;10.57;3.30;;;;;;;14.42;100.00;100011.56;5022704;28;20041;-70
2023/09/23 00:48:38;;;;;;;5.63;3.47;;;;;;;14.41;100.00;100008.06;5031822;28;20380;-69
2023/09/23 00:51:09;;;;;;;6.97;2.72;;;;;;;14.42;100.00;100006.25;5025200;28;20034;-70
2023/09/23 00:53:39;;;;;;;6.03;3.28;;;;;;;14.38;100.00;99996.91;5021442;28;20053;-70
2023/09/23 00:56:08;;;;;;;7.35;3.20;;;;;;;14.38;100.00;99992.44;5007784;28;20099;-70
2023/09/23 00:58:37;;;;;;;5.50;2.90;;;;;;;14.36;100.00;99985.56;5007616;28;20148;-70
2023/09/23 01:01:07;;;;;;;5.13;2.58;;;;;;;14.33;100.00;99976.09;5021025;28;20064;-70
2023/09/23 01:03:38;;;;;;;5.10;3.22;;;;;;;14.29;100.00;99976.50;5012956;28;20049;-70
2023/09/23 01:06:15;;;;;;;5.47;3.13;;;;;;;14.22;100.00;99975.31;5028160;28;20488;-71
2023/09/23 01:08:45;;;;;;;6.50;3.10;;;;;;;14.20;100.00;99972.81;5011678;28;20440;-69
2023/09/23 01:11:13;;;;;;;4.30;2.83;;;;;;;14.15;100.00;99972.38;5004338;28;20211;-70
2023/09/23 01:13:43;;;;;;;5.78;3.05;;;;;;;14.13;100.00;99974.28;5008644;28;20540;-69
2023/09/23 01:16:14;;;;;;;6.85;2.92;;;;;;;14.12;100.00;99969.97;5022599;28;20697;-70
2023/09/23 01:18:45;;;;;;;4.45;2.80;;;;;;;14.09;100.00;99976.34;5023906;28;20136;-70
2023/09/23 01:21:13;;;;;;;7.50;3.13;;;;;;;14.09;100.00;99976.34;5005548;28;20045;-70
2023/09/23 01:24:05;;;;;;;7.35;2.78;;;;;;;14.05;100.00;99969.66;4999295;28;20123;-70
2023/09/23 01:26:34;;;;;;;5.80;3.13;;;;;;;14.04;100.00;99980.34;5027295;28;20389;-69
2023/09/23 01:29:04;;;;;;;3.92;2.67;;;;;;;14.02;100.00;99980.50;5018209;28;20066;-70
2023/09/23 01:31:34;;;;;;;6.07;2.92;;;;;;;13.99;100.00;99987.84;5027971;28;20094;-69
2023/09/23 01:34:03;;;;;;;7.45;3.10;;;;;;;13.96;100.00;99988.09;4997245;28;20455;-69
2023/09/23 01:36:31;;;;;;;5.68;3.00;;;;;;;13.96;100.00;99990.72;5009081;28;20057;-69
2023/09/23 01:38:59;;;;;;;4.75;3.10;;;;;;;13.94;100.00;100001.44;5024663;28;20056;-70
2023/09/23 01:41:26;;;;;;;4.47;2.50;;;;;;;13.93;100.00;100002.44;5014465;28;20053;-69
2023/09/23 01:43:55;;;;;;;4.35;2.80;;;;;;;13.93;100.00;100003.25;5027561;28;20069;-69
2023/09/23 01:46:22;;;;;;;3.95;2.40;;;;;;;13.94;100.00;100006.75;5010277;28;20076;-70
2023/09/23 01:48:49;;;;;;;5.85;2.63;;;;;;;13.90;100.00;100008.81;5014753;28;20069;-70
2023/09/23 01:51:17;;;;;;;5.07;2.92;;;;;;;13.90;100.00;100002.66;4992529;28;20077;-69
2023/09/23 01:53:45;;;;;;;7.28;2.72;;;;;;;13.90;100.00;99997.38;5019918;28;20524;-69
2023/09/23 01:56:12;;;;;;;4.97;2.63;;;;;;;13.89;100.00;100001.00;5025349;28;20580;-70
2023/09/23 01:58:39;;;;;;;4.22;2.60;;;;;;;13.86;100.00;99994.13;5024619;28;20140;-70
2023/09/23 02:01:07;;;;;;;3.88;2.72;;;;;;;13.86;100.00;100002.06;5006171;28;20103;-70
2023/09/23 02:03:34;;;;;;;4.30;2.45;;;;;;;13.85;100.00;99995.13;5009453;28;20061;-70
2023/09/23 02:06:02;;;;;;;3.92;2.40;;;;;;;13.83;100.00;99996.22;5023987;28;20134;-70
2023/09/23 02:08:30;;;;;;;5.22;2.65;;;;;;;13.82;100.00;99999.81;4994415;28;20145;-69
2023/09/23 02:10:57;;;;;;;4.00;2.75;;;;;;;13.80;100.00;99999.94;5026490;28;20080;-70
2023/09/23 02:13:24;;;;;;;8.27;2.60;;;;;;;13.79;100.00;100006.22;5021949;28;20049;-69
2023/09/23 02:15:55;;;;;;;5.28;2.60;;;;;;;13.76;100.00;100011.75;5009092;28;20132;-70
2023/09/23 02:18:23;;;;;;;4.22;2.25;;;;;;;13.75;100.00;100015.38;5005545;28;20084;-68
2023/09/23 02:20:51;;;;;;;4.07;2.50;;;;;;;13.76;100.00;100010.91;5026731;28;20069;-70
2023/09/23 02:23:18;;;;;;;3.95;2.55;;;;;;;13.74;100.00;100020.78;5009720;28;20065;-70
2023/09/23 02:25:47;;;;;;;3.63;2.10;;;;;;;13.71;100.00;100008.66;5026658;28;20045;-70
2023/09/23 02:28:14;;;;;;;3.58;2.53;;;;;;;13.70;100.00;100022.84;5007419;28;20615;-69
2023/09/23 02:30:42;;;;;;;3.80;2.40;;;;;;;13.66;100.00;100019.59;5029018;28;20108;-69
2023/09/23 02:33:10;;;;;;;3.80;2.55;;;;;;;13.64;100.00;100024.19;5012393;28;20557;-70
2023/09/23 02:35:37;;;;;;;4.50;2.50;;;;;;;13.63;100.00;100029.56;5021265;28;20053;-70
2023/09/23 02:38:05;;;;;;;5.60;2.45;;;;;;;13.61;100.00;100029.72;5027998;28;20073;-70
2023/09/23 02:40:32;;;;;;;3.28;2.25;;;;;;;13.62;100.00;100031.38;5023124;28;20041;-70
2023/09/23 02:43:00;;;;;;;4.75;2.30;;;;;;;13.64;100.00;100033.91;5029314;28;20452;-70
2023/09/23 02:45:27;;;;;;;4.30;2.30;;;;;;;13.62;100.00;100030.56;5023840;28;20053;-70
2023/09/23 02:47:55;;;;;;;3.90;2.17;;;;;;;13.58;100.00;100031.75;5028480;28;20068;-70
2023/09/23 02:50:22;;;;;;;7.68;2.42;;;;;;;13.54;100.00;100041.75;5018147;28;20503;-69
2023/09/23 02:52:50;;;;;;;4.07;2.63;;;;;;;13.53;100.00;100042.72;5028761;28;20519;-69
2023/09/23 02:55:21;;;;;;;3.65;2.20;;;;;;;13.53;100.00;100041.88;5030610;28;20547;-70
2023/09/23 02:57:49;;;;;;;5.15;2.40;;;;;;;13.51;100.00;100047.28;5011162;28;20132;-70
2023/09/23 03:00:19;;;;;;;4.22;2.35;;;;;;;13.51;100.00;100054.34;5012057;28;20436;-69
2023/09/23 03:02:53;;;;;;;4.95;2.55;;;;;;;13.49;100.00;100057.13;5008933;28;20073;-70
2023/09/23 03:05:26;;;;;;;3.40;2.35;;;;;;;13.47;100.00;100058.25;5029240;28;20077;-70
2023/09/23 03:07:58;;;;;;;6.18;2.22;;;;;;;13.45;100.00;100062.78;5017444;28;20087;-70
2023/09/23 03:10:39;;;;;;;6.00;2.28;;;;;;;13.40;100.00;100079.03;5011970;28;20523;-69
2023/09/23 03:13:11;;;;;;;3.50;2.20;;;;;;;13.36;100.00;100072.28;5004560;28;20151;-69
2023/09/23 03:16:06;;;;;;;6.90;2.38;;;;;;;13.34;100.00;100079.53;5011482;28;20607;-70
2023/09/23 03:18:36;;;;;;;2.63;2.10;;;;;;;13.36;100.00;100082.88;5010626;28;20120;-70
2023/09/23 03:21:07;;;;;;;5.60;2.08;;;;;;;13.33;100.00;100075.22;5027545;28;20607;-70
2023/09/23 03:23:39;;;;;;;4.30;2.25;;;;;;;13.32;100.00;100074.34;5011502;28;20046;-70
2023/09/23 03:26:08;;;;;;;4.15;2.08;;;;;;;13.33;100.00;100080.50;5011350;28;20049;-70
2023/09/23 03:28:39;;;;;;;4.15;2.03;;;;;;;13.30;100.00;100080.72;5027421;28;20077;-69
2023/09/23 03:31:08;;;;;;;2.95;2.00;;;;;;;13.31;100.00;100090.34;5030466;28;20054;-70
2023/09/23 03:33:37;;;;;;;4.05;2.13;;;;;;;13.27;100.00;100080.97;5013357;28;20080;-70
2023/09/23 03:36:05;;;;;;;3.17;2.03;;;;;;;13.24;100.00;100087.34;5016710;28;20097;-70
2023/09/23 03:38:33;;;;;;;3.50;2.10;;;;;;;13.21;100.00;100094.63;5027681;28;20057;-71
2023/09/23 03:41:02;;;;;;;7.57;2.35;;;;;;;13.23;100.00;100095.38;5032606;28;20076;-71
2023/09/23 03:43:30;;;;;;;2.72;1.98;;;;;;;13.21;100.00;100089.34;5029417;28;20061;-71
2023/09/23 03:45:57;;;;;;;5.70;2.30;;;;;;;13.20;100.00;100096.44;5017131;28;20569;-71
2023/09/23 03:48:25;;;;;;;4.15;2.13;;;;;;;13.17;100.00;100086.09;5010501;28;20077;-70
2023/09/23 03:50:53;;;;;;;3.78;1.90;;;;;;;13.12;100.00;100097.03;5034217;28;20111;-71
2023/09/23 03:53:21;;;;;;;6.10;2.28;;;;;;;13.14;100.00;100094.25;5010730;28;20073;-72
2023/09/23 03:55:52;;;;;;;3.05;1.88;;;;;;;13.13;100.00;100098.69;5001871;28;20092;-70
2023/09/23 03:58:19;;;;;;;2.42;1.65;;;;;;;13.10;100.00;100091.03;5024324;28;20073;-70
2023/09/23 04:00:47;;;;;;;5.35;2.10;;;;;;;13.06;100.00;100102.81;5014500;28;20134;-70
2023/09/23 04:03:17;;;;;;;4.35;1.75;;;;;;;13.08;100.00;100100.88;5010478;28;20053;-70
2023/09/23 04:05:54;;;;;;;5.03;1.90;;;;;;;13.06;100.00;100104.59;5026704;28;20077;-70
2023/09/23 04:08:21;;;;;;;3.42;1.95;;;;;;;13.07;100.00;100115.03;5028857;28;20460;-70
2023/09/23 04:10:48;;;;;;;3.10;1.70;;;;;;;13.07;100.00;100111.56;5014804;28;20057;-69
2023/09/23 04:13:15;;;;;;;3.35;1.58;;;;;;;13.04;100.00;100119.72;4992556;28;20049;-70
2023/09/23 04:15:43;;;;;;;4.28;1.58;;;;;;;13.05;100.00;100122.22;5032065;28;20151;-70
2023/09/23 04:18:11;;;;;;;2.50;1.80;;;;;;;13.03;100.00;100124.16;5026020;28;20103;-70
2023/09/23 04:20:38;;;;;;;3.05;1.70;;;;;;;13.04;100.00;100125.00;5032432;28;20118;-70
2023/09/23 04:23:06;;;;;;;4.10;1.77;;;;;;;13.01;100.00;100130.50;5025524;28;20555;-69
2023/09/23 04:25:34;;;;;;;4.68;1.80;;;;;;;12.99;100.00;100133.28;5026310;28;20053;-70
2023/09/23 04:28:02;;;;;;;2.45;1.40;;;;;;;12.99;100.00;100132.44;5004992;28;20053;-70
2023/09/23 04:30:29;;;;;;;4.03;1.83;;;;;;;12.99;100.00;100137.72;5011564;28;20148;-71
2023/09/23 04:32:56;;;;;;;2.78;1.20;;;;;;;12.94;100.00;100132.81;5014912;28;20169;-69
2023/09/23 04:35:24;;;;;;;5.28;1.52;;;;;;;12.94;100.00;100140.72;5025736;28;20741;-70
2023/09/23 04:37:52;;;;;;;6.00;1.65;;;;;;;12.90;100.00;100145.41;5010104;28;20100;-70
2023/09/23 04:40:19;;;;;;;4.35;1.60;;;;;;;12.91;100.00;100149.72;5023055;28;20140;-71
2023/09/23 04:42:48;;;;;;;1.90;1.58;;;;;;;12.90;100.00;100160.41;5014783;28;20112;-72
2023/09/23 04:45:17;;;;;;;5.38;1.75;;;;;;;12.88;100.00;100165.81;5022834;28;20050;-71
2023/09/23 04:47:50;;;;;;;1.98;1.40;;;;;;;12.84;100.00;100172.28;5010500;28;20489;-71
2023/09/23 04:50:17;;;;;;;3.22;1.02;;;;;;;12.82;100.00;100170.72;5012258;28;20114;-70
2023/09/23 04:52:46;;;;;;;3.20;1.27;;;;;;;12.81;100.00;100172.50;5013121;28;20081;-71
2023/09/23 04:55:14;;;;;;;2.75;1.50;;;;;;;12.79;100.00;100166.53;5017016;28;20061;-71
2023/09/23 04:57:42;;;;;;;2.65;1.45;;;;;;;12.75;100.00;100173.00;5023772;28;20049;-70
2023/09/23 05:00:10;;;;;;;4.10;0.98;;;;;;;12.74;100.00;100171.28;5027951;28;20141;-70
2023/09/23 05:02:40;;;;;;;4.32;1.20;;;;;;;12.73;100.00;100188.09;5007859;28;20049;-69
2023/09/23 05:05:09;;;;;;;2.88;1.42;;;;;;;12.70;100.00;100188.34;5030659;28;20045;-69
2023/09/23 05:07:38;;;;;;;1.92;1.50;;;;;;;12.68;100.00;100188.44;5008814;28;20060;-69
2023/09/23 05:10:05;;;;;;;2.88;1.33;;;;;;;12.67;100.00;100192.03;5009271;28;20081;-70
2023/09/23 05:12:33;;;;;;;4.32;1.63;;;;;;;12.67;100.00;100186.75;5028916;28;20558;-70
2023/09/23 05:15:01;;;;;;;3.08;1.50;;;;;;;12.67;100.00;100209.69;5010722;28;20140;-71
2023/09/23 05:17:29;;;;;;;2.58;1.08;;;;;;;12.63;100.00;100202.94;4997037;28;20045;-69
2023/09/23 05:19:58;;;;;;;2.40;1.20;;;;;;;12.62;100.00;100204.75;5006964;28;20145;-71
2023/09/23 05:22:26;;;;;;;1.70;1.08;;;;;;;12.56;100.00;100202.56;5005285;28;20492;-70
2023/09/23 05:24:57;;;;;;;1.85;1.17;;;;;;;12.55;100.00;100203.50;5003758;28;20141;-70
2023/09/23 05:27:25;;;;;;;2.78;1.25;;;;;;;12.57;100.00;100209.53;4996402;28;20382;-70
2023/09/23 05:29:54;;;;;;;3.00;1.45;;;;;;;12.59;100.00;100210.25;5009490;28;20225;-70
2023/09/23 05:32:21;;;;;;;2.15;1.23;;;;;;;12.57;100.00;100224.53;4983384;28;20046;-70
2023/09/23 05:34:52;;;;;;;4.50;1.40;;;;;;;12.59;100.00;100231.38;5008527;28;20076;-70
2023/09/23 05:37:20;;;;;;;3.25;1.52;;;;;;;12.60;100.00;100235.69;5021691;28;20073;-69
2023/09/23 05:39:47;;;;;;;2.53;1.50;;;;;;;12.55;100.00;100239.63;5023353;28;20045;-71
2023/09/23 05:42:15;;;;;;;3.15;1.40;;;;;;;12.59;100.00;100241.94;5024988;28;20078;-70
2023/09/23 05:44:44;;;;;;;2.85;1.42;;;;;;;12.58;100.00;100244.69;5024287;28;20405;-71
2023/09/23 05:47:11;;;;;;;3.40;1.27;;;;;;;12.62;100.00;100249.63;4992246;28;20134;-70
2023/09/23 05:49:39;;;;;;;4.30;1.05;;;;;;;12.71;100.00;100268.41;5006019;28;20057;-70
2023/09/23 05:52:07;;;;;;;2.08;0.90;;;;;;;12.77;100.00;100270.59;4999646;28;20057;-70
2023/09/23 05:54:36;;;;;;;2.63;1.50;;;;;;;12.75;100.00;100273.34;5006700;28;20504;-69
2023/09/23 05:57:03;;;;;;;5.22;1.40;;;;;;;12.79;100.00;100284.50;5007707;28;20058;-71
2023/09/23 05:59:31;;;;;;;3.33;1.25;;;;;;;12.79;100.00;100273.94;5010158;28;20127;-70
2023/09/23 06:01:58;;;;;;;3.35;1.38;;;;;;;12.82;100.00;100279.84;5008389;28;20053;-70
2023/09/23 06:04:26;;;;;;;1.98;1.10;;;;;;;12.92;100.00;100280.00;5012335;28;20547;-70
2023/09/23 06:06:54;;;;;;;2.45;1.38;;;;;;;12.85;100.00;100286.72;5011190;28;20136;-69
2023/09/23 06:09:22;;;;;;;5.40;1.60;;;;;;;12.95;100.00;100292.16;5011323;28;20052;-71
2023/09/23 06:11:50;;;;;;;3.85;1.20;;;;;;;12.94;100.00;100296.63;5009178;28;20390;-70
2023/09/23 06:14:17;;;;;;;4.28;1.15;;;;;;;13.01;100.00;100296.97;5018231;28;20136;-68
2023/09/23 06:16:45;;;;;;;1.52;1.00;;;;;;;13.04;100.00;100294.13;5013669;28;20088;-69
2023/09/23 06:19:12;;;;;;;4.43;1.23;;;;;;;13.10;100.00;100297.16;5031678;28;20077;-69
2023/09/23 06:21:39;;;;;;;2.05;1.02;;;;;;;13.17;100.00;100294.91;5002757;28;20053;-69
2023/09/23 06:24:07;;;;;;;1.75;1.15;;;;;;;13.19;100.00;100295.59;5025746;28;20144;-70
2023/09/23 06:26:34;;;;;;;2.75;1.38;;;;;;;13.17;100.00;100295.75;5031726;28;20111;-70
2023/09/23 06:29:04;;;;;;;4.25;1.35;;;;;;;13.16;100.00;100293.22;5032878;28;20077;-69
2023/09/23 06:31:31;;;;;;;2.03;0.85;;;;;;;13.23;100.00;100304.19;5009266;28;20061;-70
2023/09/23 06:33:59;;;;;;;2.15;1.00;;;;;;;13.28;100.00;100312.63;5009709;28;20109;-70
2023/09/23 06:36:26;;;;;;;4.63;0.90;;;;;;;13.24;100.00;100311.16;5014200;28;20081;-69
2023/09/23 06:38:53;;;;;;;4.43;1.17;;;;;;;13.41;100.00;100321.31;5027509;28;20096;-71
2023/09/23 06:41:21;;;;;;;3.75;0.90;;;;;;;13.41;100.00;100318.66;5038162;28;20144;-70
2023/09/23 06:43:48;;;;;;;3.17;1.08;;;;;;;13.46;100.00;100321.81;5012879;28;20057;-70
2023/09/23 06:46:15;;;;;;;1.48;1.02;;;;;;;13.46;100.00;100328.91;5028058;28;20556;-70
2023/09/23 06:48:43;;;;;;;8.10;1.15;;;;;;;13.33;100.00;100321.06;5011775;28;20050;-71
2023/09/23 06:51:10;;;;;;;1.67;0.88;;;;;;;13.51;100.00;100338.19;5032184;28;20148;-70
2023/09/23 06:53:39;;;;;;;2.95;1.30;;;;;;;13.52;100.00;100331.94;5012158;28;20049;-71
2023/09/23 06:56:08;;;;;;;7.90;1.17;;;;;;;13.57;99.39;100348.28;5031518;28;20146;-70
2023/09/23 06:58:36;;;;;;;3.70;1.20;;;;;;;13.72;98.13;100340.16;4996594;28;20144;-70
2023/09/23 07:01:03;;;;;;;3.08;1.35;;;;;;;13.61;97.48;100346.25;5012976;28;20147;-69
2023/09/23 07:03:30;;;;;;;6.55;1.65;;;;;;;13.58;98.08;100342.03;5012430;28;20057;-70
2023/09/23 07:05:57;;;;;;;5.15;1.20;;;;;;;13.74;97.37;100347.00;5025886;28;20452;-70
2023/09/23 07:08:25;;;;;;;2.78;1.00;;;;;;;13.85;97.25;100354.13;5014795;28;20504;-70
2023/09/23 07:10:54;;;;;;;4.35;1.25;;;;;;;14.10;96.34;100355.72;4994868;28;20046;-68
2023/09/23 07:13:22;;;;;;;2.97;0.80;;;;;;;14.29;95.07;100368.38;5007767;28;20089;-70
2023/09/23 07:15:49;;;;;;;4.40;1.10;;;;;;;14.22;92.43;100362.69;5027474;28;20132;-70
2023/09/23 07:18:43;;;;;;;1.98;0.73;;;;;;;14.20;93.31;100375.22;5023886;28;20076;-70
2023/09/23 07:21:10;;;;;;;2.83;1.10;;;;;;;14.21;91.66;100392.78;5025987;28;20128;-71
2023/09/23 07:23:38;;;;;;;2.90;0.88;;;;;;;14.28;91.19;100383.41;5011550;28;20501;-70
2023/09/23 07:26:05;;;;;;;3.92;1.55;;;;;;;14.40;90.36;100394.81;5010008;28;20215;-69
2023/09/23 07:28:33;;;;;;;2.30;0.90;;;;;;;14.45;90.00;100390.00;5026774;28;20080;-69
2023/09/23 07:31:01;;;;;;;1.92;0.98;;;;;;;14.48;88.71;100395.09;5024370;28;20081;-70
2023/09/23 07:33:28;;;;;;;3.40;1.10;;;;;;;14.69;87.47;100381.97;5025367;28;20566;-70
2023/09/23 07:35:56;;;;;;;2.17;0.88;;;;;;;14.92;86.39;100383.59;5029484;28;20064;-70
2023/09/23 07:38:23;;;;;;;3.38;1.10;;;;;;;15.19;84.66;100391.13;5027765;28;20060;-70
2023/09/23 07:40:51;;;;;;;3.95;1.00;;;;;;;15.19;84.28;100409.69;5011056;28;20104;-70
2023/09/23 07:43:18;;;;;;;2.17;0.90;;;;;;;15.19;81.30;100388.47;4995812;28;20057;-70
2023/09/23 07:45:45;;;;;;;1.48;0.88;;;;;;;15.19;81.39;100403.53;4994298;28;20544;-69
2023/09/23 07:48:13;;;;;;;1.30;0.73;;;;;;;14.87;81.17;100412.28;4996696;28;20134;-70
2023/09/23 07:50:40;;;;;;;2.75;0.90;;;;;;;14.90;80.48;100411.19;5007076;28;20087;-70
2023/09/23 07:53:08;;;;;;;4.05;1.08;;;;;;;14.85;79.61;100418.66;5019508;28;20096;-69
2023/09/23 07:55:37;;;;;;;2.28;1.00;;;;;;;14.79;79.54;100412.06;5005968;28;20065;-71
2023/09/23 07:58:04;;;;;;;1.10;0.73;;;;;;;14.94;79.23;100415.28;5026528;28;20080;-70
2023/09/23 08:00:31;;;;;;;0.95;0.52;;;;;;;15.19;78.97;100417.63;5028277;28;20144;-69
2023/09/23 08:02:59;;;;;;;2.10;0.82;;;;;;;15.19;78.10;100422.94;5004007;28;20505;-71
2023/09/23 08:05:26;;;;;;;1.55;0.65;;;;;;;15.15;78.19;100425.97;5027201;28;20052;-71
2023/09/23 08:07:54;;;;;;;4.20;0.85;;;;;;;15.12;77.77;100426.22;5008829;28;20118;-70
2023/09/23 08:10:21;;;;;;;1.63;0.90;;;;;;;15.30;76.53;100434.47;5003058;28;20081;-70
2023/09/23 08:12:48;;;;;;;3.10;1.42;;;;;;;15.29;76.51;100430.16;5011501;28;20104;-70
2023/09/23 08:15:16;;;;;;;3.75;0.82;;;;;;;15.01;77.10;100442.16;5006115;28;20115;-69
2023/09/23 08:17:43;;;;;;;1.98;0.80;;;;;;;14.98;77.22;100445.88;5023679;28;20061;-69
2023/09/23 08:20:23;;;;;;;4.90;1.00;;;;;;;14.93;77.19;100448.91;5015764;28;20120;-70
2023/09/23 08:22:53;;;;;;;2.05;1.02;;;;;;;15.08;76.46;100449.47;5011297;28;20053;-70
2023/09/23 08:25:24;;;;;;;1.90;0.90;;;;;;;15.23;76.45;100458.03;5011151;28;20046;-70
2023/09/23 08:27:53;;;;;;;1.25;0.88;;;;;;;15.37;76.56;100464.84;5011345;28;20061;-70
2023/09/23 08:30:21;;;;;;;3.35;1.08;;;;;;;15.16;76.45;100459.47;5031135;28;20046;-70
2023/09/23 08:32:49;;;;;;;1.55;0.93;;;;;;;15.16;77.29;100464.78;5023237;28;20107;-70
2023/09/23 08:35:17;;;;;;;2.13;1.00;;;;;;;15.34;75.91;100483.66;5007587;28;20094;-70
2023/09/23 08:37:48;;;;;;;1.00;0.65;;;;;;;15.16;76.77;100476.22;5009545;28;20551;-69
2023/09/23 08:40:19;;;;;;;2.35;1.08;;;;;;;15.51;76.51;100480.47;5007650;28;20057;-69
2023/09/23 08:42:52;;;;;;;1.80;0.82;;;;;;;15.48;74.32;100486.03;5007821;28;20058;-72
2023/09/23 08:45:26;;;;;;;1.20;0.60;;;;;;;15.76;74.30;100489.09;4981578;28;20054;-70
2023/09/23 08:47:54;;;;;;;1.05;0.80;;;;;;;16.08;72.51;100508.50;5009666;28;20111;-71
2023/09/23 08:50:21;;;;;;;3.47;0.80;;;;;;;16.06;71.83;100520.22;5029601;28;20114;-69
2023/09/23 08:52:49;;;;;;;1.85;0.98;;;;;;;15.83;71.20;100527.44;5025804;28;20596;-70
2023/09/23 08:55:17;;;;;;;1.42;0.98;;;;;;;15.74;71.85;100517.59;5009872;28;20084;-70
2023/09/23 08:57:44;;;;;;;3.15;1.00;;;;;;;15.96;72.88;100530.78;5015479;28;20053;-70
2023/09/23 09:00:13;;;;;;;1.27;0.80;;;;;;;15.94;71.30;100524.75;5011952;28;20045;-69
2023/09/23 09:02:41;;;;;;;2.85;0.98;;;;;;;15.77;71.70;100530.63;5011021;28;20106;-70
2023/09/23 09:05:09;;;;;;;2.55;1.00;;;;;;;15.72;71.60;100531.00;5012119;28;20045;-70
2023/09/23 09:07:37;;;;;;;1.50;0.80;;;;;;;15.73;71.74;100527.38;5012518;28;20128;-71
2023/09/23 09:10:05;;;;;;;1.60;0.90;;;;;;;15.74;72.15;100533.50;5000978;28;20183;-70
2023/09/23 09:12:34;;;;;;;1.25;0.73;;;;;;;15.82;72.06;100542.53;5008464;28;20562;-70
2023/09/23 09:15:01;;;;;;;4.20;0.70;;;;;;;15.88;71.28;100547.31;5024380;28;20055;-69
2023/09/23 09:17:33;;;;;;;3.30;1.00;;;;;;;15.79;70.60;100544.59;5014068;28;20468;-70
2023/09/23 09:20:08;;;;;;;1.58;0.85;;;;;;;15.81;70.87;100550.63;5019661;28;20656;-70
2023/09/23 09:22:36;;;;;;;2.33;0.85;;;;;;;15.73;71.19;100545.94;5026508;28;20050;-71
2023/09/23 09:25:04;;;;;;;4.07;0.90;;;;;;;15.76;71.45;100558.09;5027720;28;20088;-71
2023/09/23 09:27:31;;;;;;;0.93;0.70;;;;;;;15.75;71.47;100559.06;5001532;28;20053;-69
2023/09/23 09:29:59;;;;;;;2.22;1.13;;;;;;;15.87;72.14;100558.91;5024751;28;20041;-69
2023/09/23 09:32:44;;;;;;;3.63;1.02;;;;;;;15.78;71.16;100582.72;4999045;28;20069;-69
2023/09/23 09:35:17;;;;;;;2.90;1.00;;;;;;;15.70;71.52;100567.41;5014934;28;20145;-69
2023/09/23 09:37:46;;;;;;;2.45;1.00;;;;;;;15.88;70.95;100563.25;5013534;28;20556;-70
2023/09/23 09:40:19;;;;;;;2.35;1.15;;;;;;;15.95;69.92;100563.59;5014666;28;20140;-70
2023/09/23 09:42:57;;;;;;;3.22;1.35;;;;;;;16.27;69.23;100560.94;5026798;28;20080;-70
2023/09/23 09:45:26;;;;;;;1.58;0.77;;;;;;;16.27;69.05;100568.06;5024375;28;20037;-70
2023/09/23 09:48:00;;;;;;;2.88;1.35;;;;;;;16.45;69.22;100570.00;5026972;28;20053;-69
2023/09/23 09:50:28;;;;;;;1.05;0.95;;;;;;;16.61;66.95;100558.91;5005942;28;20144;-70
2023/09/23 09:52:56;;;;;;;2.08;1.13;;;;;;;16.65;66.42;100557.66;5005984;28;20053;-70
2023/09/23 09:55:25;;;;;;;3.83;1.20;;;;;;;16.77;65.70;100561.13;5023177;28;20260;-70
2023/09/23 09:57:55;;;;;;;3.97;1.60;;;;;;;17.01;64.63;100563.47;5005490;28;20049;-70
2023/09/23 10:00:28;;;;;;;3.75;1.13;;;;;;;17.02;64.91;100570.50;5021487;28;20149;-70
2023/09/23 10:03:01;;;;;;;3.97;1.38;;;;;;;16.45;66.16;100577.97;5006149;28;20120;-69
2023/09/23 10:05:53;;;;;;;2.00;1.23;;;;;;;16.29;65.95;100580.22;5024771;28;20140;-70
2023/09/23 10:08:24;;;;;;;2.95;1.20;;;;;;;16.49;66.59;100583.88;5010092;28;20704;-69
2023/09/23 10:11:02;;;;;;;3.53;1.70;;;;;;;16.18;67.31;100567.00;5023688;28;20046;-70
2023/09/23 10:13:31;;;;;;;1.08;0.93;;;;;;;16.31;68.41;100573.00;5009706;28;20512;-70
2023/09/23 10:16:02;;;;;;;1.50;1.10;;;;;;;16.38;67.51;100570.66;5021522;28;20053;-70
2023/09/23 10:18:34;;;;;;;2.47;1.63;;;;;;;16.33;68.27;100586.97;5018501;28;20089;-69
2023/09/23 10:21:05;;;;;;;2.10;1.33;;;;;;;16.49;67.80;100577.72;5020457;28;20057;-70
2023/09/23 10:23:36;;;;;;;5.05;1.60;;;;;;;16.41;68.34;100584.50;5014427;28;20054;-70
2023/09/23 10:26:19;;;;;;;3.20;1.33;;;;;;;16.87;67.99;100574.47;5019529;28;20072;-69
2023/09/23 10:28:57;;;;;;;3.67;1.65;;;;;;;17.71;65.87;100581.22;5019075;28;20073;-69
2023/09/23 10:31:32;;;;;;;2.15;1.52;;;;;;;18.26;63.50;100577.22;5011301;28;20141;-70
2023/09/23 10:34:03;;;;;;;;;;;;;;;18.23;62.83;100587.16;5023846;28;20072;-69
2023/09/23 10:36:30;;;;;;;3.22;1.50;;;;;;;18.06;62.45;100593.22;5023362;28;19921;-70
2023/09/23 10:38:59;;;;;;;1.63;1.20;;;;;;;17.63;64.33;100586.38;5003505;28;20054;-69
2023/09/23 10:41:36;;;;;;;3.00;1.25;;;;;;;17.37;65.41;100591.34;5024307;28;20092;-69
2023/09/23 10:44:04;;;;;;;3.42;1.52;;;;;;;17.27;65.20;100594.97;5022861;28;20441;-70
2023/09/23 10:46:32;;;;;;;3.00;1.30;;;;;;;17.30;66.06;100606.19;5017022;28;20054;-70
2023/09/23 10:48:59;;;;;;;2.05;1.58;;;;;;;16.85;66.86;100603.03;5006402;28;20050;-70
2023/09/23 10:51:33;;;;;;;4.80;1.50;;;;;;;17.06;67.00;100600.31;5023111;28;20084;-70
2023/09/23 10:54:01;;;;;;;3.35;1.50;;;;;;;17.24;64.90;100601.38;5012817;28;20119;-71
2023/09/23 10:56:32;;;;;;;3.63;1.35;;;;;;;16.92;66.14;100602.34;5029588;28;20077;-69
2023/09/23 10:59:00;;;;;;;2.13;1.40;;;;;;;16.83;66.38;100610.28;5022160;28;20527;-70
2023/09/23 11:01:27;;;;;;;2.70;1.30;;;;;;;16.66;67.05;100604.56;5005315;28;20431;-70
2023/09/23 11:03:54;;;;;;;4.10;1.23;;;;;;;16.71;67.25;100604.19;5018742;28;20049;-70
2023/09/23 11:06:22;;;;;;;1.83;1.25;;;;;;;17.14;67.27;100606.66;5022656;28;20058;-70
2023/09/23 11:08:50;;;;;;;2.58;1.30;;;;;;;17.31;65.22;100599.03;4990088;28;20129;-69
2023/09/23 11:11:18;;;;;;;4.32;1.92;;;;;;;17.38;65.11;100594.84;5007571;28;20072;-69
2023/09/23 11:13:48;;;;;;;2.75;1.55;;;;;;;16.99;64.55;100600.03;5006261;28;20073;-69
2023/09/23 11:16:16;;;;;;;1.90;1.35;;;;;;;17.12;65.49;100599.81;5014547;28;20171;-70
2023/09/23 11:18:44;;;;;;;4.85;1.65;;;;;;;17.00;63.54;100604.34;5004808;28;20053;-69
2023/09/23 11:21:12;;;;;;;2.05;1.30;;;;;;;17.05;64.33;100627.91;4995391;28;20674;-70
2023/09/23 11:23:39;;;;;;;1.30;1.20;;;;;;;16.68;64.87;100615.06;5020618;28;20131;-70
2023/09/23 11:26:07;;;;;;;2.13;1.00;;;;;;;16.37;65.15;100608.81;4994325;28;20537;-69
2023/09/23 11:28:34;;;;;;;1.50;1.00;;;;;;;16.47;65.73;100604.41;5008277;28;20050;-69
2023/09/23 11:31:01;;;;;;;1.88;1.30;;;;;;;16.52;65.56;100607.53;5022908;28;20127;-70